LGKRLGAD

Guest
Details From LGKR - IOANNIS KAPODISTRIAS INTL
To LGAD - ANDRAVIDA
Flight Number -
Tags generated
Created
Modified
Stats Distance 120 nm / 222 km
Max Altitude 4,300 ft / 1,311 m
Waypoints 3
Social Downloads 0
Likes 0
Share VATSIM

Download

Looking for another format? Having issues loading an existing format? Contact us
Advertisement - Login to hide

Notes

Basic altitude profile: - Ascent Rate: 2500ft/min - Ascent Speed: 250kts - Cruise Altitude: 35000ft - Cruise Speed: 420kts - Descent Rate: 1500ft/min - Descent Speed: 250kts Options: - Use NATs: yes - Use PACOTS: yes - Use low airways: yes - Use high airways: yes

Route

LGKR KRK LGAD

ID Type Via Altitude Latitude Longitude Leg Dist Tot Dist Heading (true) Name
O LGKR APT - 0 ft / 0 m 39.60178˚ 19.91191˚ - 0 nm - IOANNIS KAPODISTRIAS INTL
KRK VOR - 4,300 ft / 1,311 m 39.44389˚ 20.07278˚ 12 nm 12 nm 142° / 142° KERKIRA VOR-DME
O LGAD APT - 0 ft / 0 m 37.92071˚ 21.29258˚ 107 nm 119 nm 148° / 148° ANDRAVIDA

Altitude Profile

Advertisement - Login to hide

LGKR

Details ICAO LGKR (CFU)
Name IOANNIS KAPODISTRIAS INTL
Region Greece
Timezone Europe/Athens (UTC+2.0)
Stats Elevation 6 ft / 2 m (AMSL)
Location 39.601779° 19.911908°
Runways 1
Magnetic Variation 4.099° E

METAR

LGKR 171020Z 35010KT 9999 SCT030 SCT080 14/08 Q1010 NOSIG

Decode

TAF

TAF LGKR 170500Z 1706/1806 32010KT 9999 SCT015 BKN025 PROB30 TEMPO 1706/1800 5000 RA BKN020 BECMG 1710/1712 VRB05KT

Decode

Departure Runways

ID Width Length Bearing (true) Bearing (mag) Surface Threshold Offset Overrun Length
17 148 ft / 45 m 7,815 ft / 2,382 m 168.81° 164.71° Asphalt 1,348 ft / 411 m 0 ft / 0 m
35 148 ft / 45 m 7,815 ft / 2,382 m 348.81° 344.71° Asphalt 213 ft / 65 m 0 ft / 0 m

LGAD

Details ICAO LGAD (PYR)
Name ANDRAVIDA
Region Greece
Timezone Europe/Athens (UTC+2.0)
Stats Elevation 55 ft / 17 m (AMSL)
Location 37.920708° 21.292583°
Runways 1
Magnetic Variation 4.142° E

METAR

LGAD 171020Z 27009KT 9999 FEW012 FEW018TCU BKN025 BKN080 14/10 Q1012

Decode

TAF

Not found

Destination Runways

ID Width Length Bearing (true) Bearing (mag) Surface Threshold Offset Overrun Length
16 148 ft / 45 m 10,313 ft / 3,143 m 164.62° 160.48° Asphalt 0 ft / 0 m 75 ft / 23 m
34 148 ft / 45 m 10,313 ft / 3,143 m 344.63° 340.49° Asphalt 0 ft / 0 m 75 ft / 23 m